sensor_id;sensor_type;location;lat;lon;timestamp;temperature;humidity
28552;DHT22;15752;49.560;8.708;2023-05-20T12:39:49;23.70;90.00
28552;DHT22;15752;49.560;8.708;2023-05-20T12:42:18;23.70;89.50
28552;DHT22;15752;49.560;8.708;2023-05-20T12:44:46;23.60;89.40
28552;DHT22;15752;49.560;8.708;2023-05-20T12:47:15;23.60;89.30
28552;DHT22;15752;49.560;8.708;2023-05-20T12:49:44;23.60;88.90
28552;DHT22;15752;49.560;8.708;2023-05-20T12:52:12;23.60;89.00
28552;DHT22;15752;49.560;8.708;2023-05-20T12:54:50;23.60;88.80
28552;DHT22;15752;49.560;8.708;2023-05-20T12:57:18;23.70;89.20
28552;DHT22;15752;49.560;8.708;2023-05-20T12:59:47;23.70;89.30
28552;DHT22;15752;49.560;8.708;2023-05-20T13:02:16;23.70;89.10
28552;DHT22;15752;49.560;8.708;2023-05-20T13:04:44;23.70;89.00
28552;DHT22;15752;49.560;8.708;2023-05-20T13:07:13;23.70;88.80
28552;DHT22;15752;49.560;8.708;2023-05-20T13:09:42;23.70;89.30
28552;DHT22;15752;49.560;8.708;2023-05-20T13:12:12;23.70;89.60
28552;DHT22;15752;49.560;8.708;2023-05-20T13:14:41;23.70;89.00
28552;DHT22;15752;49.560;8.708;2023-05-20T13:17:10;23.80;89.00
28552;DHT22;15752;49.560;8.708;2023-05-20T13:19:39;23.80;89.00
28552;DHT22;15752;49.560;8.708;2023-05-20T13:22:08;23.90;89.00
28552;DHT22;15752;49.560;8.708;2023-05-20T13:24:36;24.00;88.80
28552;DHT22;15752;49.560;8.708;2023-05-20T13:27:05;24.00;88.70
28552;DHT22;15752;49.560;8.708;2023-05-20T13:29:35;24.10;88.80
28552;DHT22;15752;49.560;8.708;2023-05-20T13:32:04;24.10;88.30
28552;DHT22;15752;49.560;8.708;2023-05-20T13:34:35;24.20;88.60
28552;DHT22;15752;49.560;8.708;2023-05-20T13:37:05;24.30;88.50
28552;DHT22;15752;49.560;8.708;2023-05-20T13:39:33;24.30;87.90
28552;DHT22;15752;49.560;8.708;2023-05-20T13:42:02;24.40;87.30
28552;DHT22;15752;49.560;8.708;2023-05-20T13:44:31;24.40;87.60
28552;DHT22;15752;49.560;8.708;2023-05-20T13:47:01;24.40;87.50
28552;DHT22;15752;49.560;8.708;2023-05-20T13:49:29;24.40;87.40
28552;DHT22;15752;49.560;8.708;2023-05-20T13:51:58;24.40;88.20
28552;DHT22;15752;49.560;8.708;2023-05-20T13:54:26;24.40;87.30
28552;DHT22;15752;49.560;8.708;2023-05-20T13:56:55;24.40;87.50
28552;DHT22;15752;49.560;8.708;2023-05-20T13:59:23;24.40;87.60
28552;DHT22;15752;49.560;8.708;2023-05-20T14:01:52;24.40;87.60
28552;DHT22;15752;49.560;8.708;2023-05-20T14:04:24;24.40;88.00
28552;DHT22;15752;49.560;8.708;2023-05-20T14:06:53;24.50;88.20
28552;DHT22;15752;49.560;8.708;2023-05-20T14:09:22;24.50;87.20
28552;DHT22;15752;49.560;8.708;2023-05-20T14:11:50;24.60;87.40
28552;DHT22;15752;49.560;8.708;2023-05-20T14:14:19;24.60;87.20
28552;DHT22;15752;49.560;8.708;2023-05-20T14:16:47;24.60;87.00
28552;DHT22;15752;49.560;8.708;2023-05-20T14:19:16;24.70;87.20
28552;DHT22;15752;49.560;8.708;2023-05-20T14:21:45;24.80;86.00
28552;DHT22;15752;49.560;8.708;2023-05-20T14:24:14;24.80;86.20
28552;DHT22;15752;49.560;8.708;2023-05-20T14:26:42;24.80;85.90
28552;DHT22;15752;49.560;8.708;2023-05-20T14:29:11;24.80;86.10
28552;DHT22;15752;49.560;8.708;2023-05-20T14:31:41;24.80;86.20
28552;DHT22;15752;49.560;8.708;2023-05-20T14:34:09;24.80;85.90
28552;DHT22;15752;49.560;8.708;2023-05-20T14:36:38;24.80;86.20
28552;DHT22;15752;49.560;8.708;2023-05-20T14:39:08;24.80;86.00
28552;DHT22;15752;49.560;8.708;2023-05-20T14:41:36;24.80;86.40
28552;DHT22;15752;49.560;8.708;2023-05-20T14:44:05;24.80;86.40
28552;DHT22;15752;49.560;8.708;2023-05-20T14:46:33;24.80;86.40
28552;DHT22;15752;49.560;8.708;2023-05-20T14:49:02;24.80;85.70
28552;DHT22;15752;49.560;8.708;2023-05-20T14:51:30;24.80;85.50
28552;DHT22;15752;49.560;8.708;2023-05-20T14:53:59;24.90;85.80
28552;DHT22;15752;49.560;8.708;2023-05-20T14:56:29;24.90;85.70
28552;DHT22;15752;49.560;8.708;2023-05-20T14:58:57;24.90;86.20
28552;DHT22;15752;49.560;8.708;2023-05-20T15:01:25;24.90;85.60
28552;DHT22;15752;49.560;8.708;2023-05-20T15:03:54;24.90;85.90
28552;DHT22;15752;49.560;8.708;2023-05-20T15:06:23;24.90;85.70
28552;DHT22;15752;49.560;8.708;2023-05-20T15:08:51;24.80;85.70
28552;DHT22;15752;49.560;8.708;2023-05-20T15:11:20;24.90;85.80
28552;DHT22;15752;49.560;8.708;2023-05-20T15:13:50;24.90;85.90
28552;DHT22;15752;49.560;8.708;2023-05-20T15:16:18;24.90;85.90
28552;DHT22;15752;49.560;8.708;2023-05-20T15:18:50;24.80;86.00
28552;DHT22;15752;49.560;8.708;2023-05-20T15:21:18;24.80;87.00
28552;DHT22;15752;49.560;8.708;2023-05-20T15:23:47;24.80;86.20
28552;DHT22;15752;49.560;8.708;2023-05-20T15:26:15;24.80;85.90
28552;DHT22;15752;49.560;8.708;2023-05-20T15:28:44;24.80;86.20
28552;DHT22;15752;49.560;8.708;2023-05-20T15:31:14;24.80;86.40
28552;DHT22;15752;49.560;8.708;2023-05-20T15:33:42;24.70;86.00
28552;DHT22;15752;49.560;8.708;2023-05-20T15:36:11;24.70;86.20
28552;DHT22;15752;49.560;8.708;2023-05-20T15:38:40;24.70;86.00
28552;DHT22;15752;49.560;8.708;2023-05-20T15:41:09;24.60;86.10
28552;DHT22;15752;49.560;8.708;2023-05-20T15:43:39;24.60;86.00
28552;DHT22;15752;49.560;8.708;2023-05-20T15:46:08;24.60;86.00
28552;DHT22;15752;49.560;8.708;2023-05-20T15:48:39;24.50;86.10
28552;DHT22;15752;49.560;8.708;2023-05-20T15:51:07;24.50;86.50
28552;DHT22;15752;49.560;8.708;2023-05-20T15:53:36;24.50;86.40
28552;DHT22;15752;49.560;8.708;2023-05-20T15:56:07;24.50;86.70
28552;DHT22;15752;49.560;8.708;2023-05-20T15:58:38;24.40;86.70
28552;DHT22;15752;49.560;8.708;2023-05-20T16:01:06;24.40;86.50
28552;DHT22;15752;49.560;8.708;2023-05-20T16:03:34;24.40;86.70
28552;DHT22;15752;49.560;8.708;2023-05-20T16:06:05;24.40;86.90
28552;DHT22;15752;49.560;8.708;2023-05-20T16:08:36;24.40;86.70
28552;DHT22;15752;49.560;8.708;2023-05-20T16:11:04;24.40;86.70
28552;DHT22;15752;49.560;8.708;2023-05-20T16:13:33;24.30;86.90
28552;DHT22;15752;49.560;8.708;2023-05-20T16:16:02;24.30;87.50
28552;DHT22;15752;49.560;8.708;2023-05-20T16:18:30;24.30;86.80
28552;DHT22;15752;49.560;8.708;2023-05-20T16:20:59;24.20;87.00
28552;DHT22;15752;49.560;8.708;2023-05-20T16:23:28;24.20;87.30
28552;DHT22;15752;49.560;8.708;2023-05-20T16:25:57;24.20;87.50
28552;DHT22;15752;49.560;8.708;2023-05-20T16:28:25;24.20;87.50
28552;DHT22;15752;49.560;8.708;2023-05-20T16:30:54;24.20;87.90
28552;DHT22;15752;49.560;8.708;2023-05-20T16:33:24;24.20;87.80
28552;DHT22;15752;49.560;8.708;2023-05-20T16:35:52;24.20;88.00
28552;DHT22;15752;49.560;8.708;2023-05-20T16:38:21;24.20;88.10
28552;DHT22;15752;49.560;8.708;2023-05-20T16:40:51;24.30;88.20
28552;DHT22;15752;49.560;8.708;2023-05-20T16:43:23;24.30;88.20
28552;DHT22;15752;49.560;8.708;2023-05-20T16:45:52;24.30;88.10
28552;DHT22;15752;49.560;8.708;2023-05-20T16:48:20;24.40;88.20
28552;DHT22;15752;49.560;8.708;2023-05-20T16:50:49;24.40;87.70
28552;DHT22;15752;49.560;8.708;2023-05-20T16:53:17;24.40;87.70
28552;DHT22;15752;49.560;8.708;2023-05-20T16:55:46;24.40;87.30
28552;DHT22;15752;49.560;8.708;2023-05-20T16:58:16;24.40;87.20
28552;DHT22;15752;49.560;8.708;2023-05-20T17:00:44;24.30;87.10
28552;DHT22;15752;49.560;8.708;2023-05-20T17:03:13;24.30;87.30
28552;DHT22;15752;49.560;8.708;2023-05-20T17:05:43;24.30;87.50
28552;DHT22;15752;49.560;8.708;2023-05-20T17:08:12;24.20;87.40
28552;DHT22;15752;49.560;8.708;2023-05-20T17:10:40;24.20;87.30
28552;DHT22;15752;49.560;8.708;2023-05-20T17:13:09;24.20;87.50
28552;DHT22;15752;49.560;8.708;2023-05-20T17:15:39;24.20;87.80
28552;DHT22;15752;49.560;8.708;2023-05-20T17:18:07;24.10;87.80
28552;DHT22;15752;49.560;8.708;2023-05-20T17:20:36;24.10;87.80
28552;DHT22;15752;49.560;8.708;2023-05-20T17:23:04;24.10;88.20
28552;DHT22;15752;49.560;8.708;2023-05-20T17:25:33;24.10;88.20
28552;DHT22;15752;49.560;8.708;2023-05-20T17:28:01;24.10;88.30
28552;DHT22;15752;49.560;8.708;2023-05-20T17:30:30;24.10;88.60
28552;DHT22;15752;49.560;8.708;2023-05-20T17:33:00;24.10;88.30
28552;DHT22;15752;49.560;8.708;2023-05-20T17:35:29;24.10;88.10
28552;DHT22;15752;49.560;8.708;2023-05-20T17:37:57;24.10;87.80
28552;DHT22;15752;49.560;8.708;2023-05-20T17:40:26;24.10;87.60
28552;DHT22;15752;49.560;8.708;2023-05-20T17:42:54;24.10;87.60
28552;DHT22;15752;49.560;8.708;2023-05-20T17:45:23;24.00;87.50
28552;DHT22;15752;49.560;8.708;2023-05-20T17:47:51;24.00;87.70
28552;DHT22;15752;49.560;8.708;2023-05-20T17:50:21;23.90;87.70
28552;DHT22;15752;49.560;8.708;2023-05-20T17:52:50;23.90;87.70
28552;DHT22;15752;49.560;8.708;2023-05-20T17:55:18;23.80;87.70
28552;DHT22;15752;49.560;8.708;2023-05-20T17:57:47;23.80;87.80
28552;DHT22;15752;49.560;8.708;2023-05-20T18:00:16;23.70;88.00
28552;DHT22;15752;49.560;8.708;2023-05-20T18:02:47;23.70;88.00
28552;DHT22;15752;49.560;8.708;2023-05-20T18:05:16;23.70;88.00
28552;DHT22;15752;49.560;8.708;2023-05-20T18:07:46;23.60;89.00
28552;DHT22;15752;49.560;8.708;2023-05-20T18:10:14;23.60;88.30
28552;DHT22;15752;49.560;8.708;2023-05-20T18:12:43;23.50;88.50
28552;DHT22;15752;49.560;8.708;2023-05-20T18:15:12;23.50;88.30
28552;DHT22;15752;49.560;8.708;2023-05-20T18:17:42;23.50;88.30
28552;DHT22;15752;49.560;8.708;2023-05-20T18:20:12;23.40;88.50
28552;DHT22;15752;49.560;8.708;2023-05-20T18:23:08;23.40;88.70
28552;DHT22;15752;49.560;8.708;2023-05-20T18:25:36;23.30;88.70
28552;DHT22;15752;49.560;8.708;2023-05-20T18:28:08;23.30;88.60
28552;DHT22;15752;49.560;8.708;2023-05-20T18:30:37;23.30;88.80
28552;DHT22;15752;49.560;8.708;2023-05-20T18:33:05;23.20;88.90
28552;DHT22;15752;49.560;8.708;2023-05-20T18:35:34;23.20;88.90
28552;DHT22;15752;49.560;8.708;2023-05-20T18:38:02;23.10;89.00
28552;DHT22;15752;49.560;8.708;2023-05-20T18:40:32;23.10;89.80
28552;DHT22;15752;49.560;8.708;2023-05-20T18:43:01;23.00;89.10
28552;DHT22;15752;49.560;8.708;2023-05-20T18:45:30;23.00;89.30
28552;DHT22;15752;49.560;8.708;2023-05-20T18:47:59;23.00;89.30
28552;DHT22;15752;49.560;8.708;2023-05-20T18:50:27;22.90;89.60
28552;DHT22;15752;49.560;8.708;2023-05-20T18:52:56;22.90;89.70
28552;DHT22;15752;49.560;8.708;2023-05-20T18:55:24;22.90;89.20
28552;DHT22;15752;49.560;8.708;2023-05-20T18:57:54;22.80;89.10
28552;DHT22;15752;49.560;8.708;2023-05-20T19:00:22;22.80;89.20
28552;DHT22;15752;49.560;8.708;2023-05-20T19:02:51;22.70;88.90
28552;DHT22;15752;49.560;8.708;2023-05-20T19:05:22;22.70;88.60
28552;DHT22;15752;49.560;8.708;2023-05-20T19:07:51;22.70;89.50
28552;DHT22;15752;49.560;8.708;2023-05-20T19:10:20;22.60;89.60
28552;DHT22;15752;49.560;8.708;2023-05-20T19:12:49;22.50;90.00
28552;DHT22;15752;49.560;8.708;2023-05-20T19:15:18;22.50;90.00
28552;DHT22;15752;49.560;8.708;2023-05-20T19:17:47;22.50;90.10
28552;DHT22;15752;49.560;8.708;2023-05-20T19:20:15;22.50;90.00
28552;DHT22;15752;49.560;8.708;2023-05-20T19:22:44;22.40;90.10
28552;DHT22;15752;49.560;8.708;2023-05-20T19:25:13;22.40;90.20
28552;DHT22;15752;49.560;8.708;2023-05-20T19:27:41;22.30;90.20
28552;DHT22;15752;49.560;8.708;2023-05-20T19:30:10;22.30;90.30
28552;DHT22;15752;49.560;8.708;2023-05-20T19:32:40;22.30;90.40
28552;DHT22;15752;49.560;8.708;2023-05-20T19:35:09;22.30;90.20
28552;DHT22;15752;49.560;8.708;2023-05-20T19:37:37;22.20;90.20
28552;DHT22;15752;49.560;8.708;2023-05-20T19:40:07;22.20;90.50
28552;DHT22;15752;49.560;8.708;2023-05-20T19:42:36;22.10;90.70
28552;DHT22;15752;49.560;8.708;2023-05-20T19:45:06;22.10;90.60
28552;DHT22;15752;49.560;8.708;2023-05-20T19:47:35;22.10;90.90
28552;DHT22;15752;49.560;8.708;2023-05-20T19:50:06;21.70;90.80
28552;DHT22;15752;49.560;8.708;2023-05-20T19:52:35;22.00;91.00
28552;DHT22;15752;49.560;8.708;2023-05-20T19:55:04;22.00;90.70
28552;DHT22;15752;49.560;8.708;2023-05-20T19:57:33;21.90;91.00
28552;DHT22;15752;49.560;8.708;2023-05-20T20:00:02;21.90;90.80
28552;DHT22;15752;49.560;8.708;2023-05-20T20:02:38;21.80;90.70
28552;DHT22;15752;49.560;8.708;2023-05-20T20:05:09;21.80;90.70
28552;DHT22;15752;49.560;8.708;2023-05-20T20:07:37;21.80;91.00
28552;DHT22;15752;49.560;8.708;2023-05-20T20:10:07;21.70;91.20
28552;DHT22;15752;49.560;8.708;2023-05-20T20:12:36;21.70;91.40
28552;DHT22;15752;49.560;8.708;2023-05-20T20:15:05;21.70;90.90
28552;DHT22;15752;49.560;8.708;2023-05-20T20:17:35;21.40;91.30
28552;DHT22;15752;49.560;8.708;2023-05-20T20:20:04;21.60;90.80
28552;DHT22;15752;49.560;8.708;2023-05-20T20:22:37;21.60;91.50
28552;DHT22;15752;49.560;8.708;2023-05-20T20:25:06;21.50;91.10
28552;DHT22;15752;49.560;8.708;2023-05-20T20:27:35;21.60;91.70
28552;DHT22;15752;49.560;8.708;2023-05-20T20:30:05;21.50;91.10
28552;DHT22;15752;49.560;8.708;2023-05-20T20:32:34;21.50;91.70
28552;DHT22;15752;49.560;8.708;2023-05-20T20:35:04;21.40;91.40
28552;DHT22;15752;49.560;8.708;2023-05-20T20:37:33;21.40;91.70
28552;DHT22;15752;49.560;8.708;2023-05-20T20:40:06;21.30;91.50
28552;DHT22;15752;49.560;8.708;2023-05-20T20:42:39;21.30;92.00
28552;DHT22;15752;49.560;8.708;2023-05-20T20:45:11;21.30;91.80
28552;DHT22;15752;49.560;8.708;2023-05-20T20:47:40;21.20;91.70
28552;DHT22;15752;49.560;8.708;2023-05-20T20:50:17;21.20;91.90
28552;DHT22;15752;49.560;8.708;2023-05-20T20:52:45;21.20;91.90
28552;DHT22;15752;49.560;8.708;2023-05-20T20:55:15;21.10;92.30
28552;DHT22;15752;49.560;8.708;2023-05-20T20:57:44;21.10;92.20
28552;DHT22;15752;49.560;8.708;2023-05-20T21:00:14;21.10;92.00
28552;DHT22;15752;49.560;8.708;2023-05-20T21:02:44;21.10;92.20
28552;DHT22;15752;49.560;8.708;2023-05-20T21:05:14;21.00;92.40
28552;DHT22;15752;49.560;8.708;2023-05-20T21:07:43;21.00;92.00
28552;DHT22;15752;49.560;8.708;2023-05-20T21:10:17;21.00;92.40
28552;DHT22;15752;49.560;8.708;2023-05-20T21:12:46;21.00;91.40
28552;DHT22;15752;49.560;8.708;2023-05-20T21:15:15;21.00;92.00
28552;DHT22;15752;49.560;8.708;2023-05-20T21:17:43;20.90;92.00
28552;DHT22;15752;49.560;8.708;2023-05-20T21:20:12;20.90;92.30
28552;DHT22;15752;49.560;8.708;2023-05-20T21:22:42;20.90;92.40
28552;DHT22;15752;49.560;8.708;2023-05-20T21:25:10;20.90;92.70
28552;DHT22;15752;49.560;8.708;2023-05-20T21:27:41;20.90;92.70
28552;DHT22;15752;49.560;8.708;2023-05-20T21:30:10;20.90;92.50
28552;DHT22;15752;49.560;8.708;2023-05-20T21:32:39;20.90;92.90
28552;DHT22;15752;49.560;8.708;2023-05-20T21:35:08;20.80;92.20
28552;DHT22;15752;49.560;8.708;2023-05-20T21:37:36;20.80;92.80
28552;DHT22;15752;49.560;8.708;2023-05-20T21:40:06;20.80;92.60
28552;DHT22;15752;49.560;8.708;2023-05-20T21:42:35;20.80;93.00
28552;DHT22;15752;49.560;8.708;2023-05-20T21:45:07;20.80;92.10
28552;DHT22;15752;49.560;8.708;2023-05-20T21:47:36;20.80;93.00
28552;DHT22;15752;49.560;8.708;2023-05-20T21:50:06;20.80;91.80
28552;DHT22;15752;49.560;8.708;2023-05-20T21:52:35;20.80;92.60
28552;DHT22;15752;49.560;8.708;2023-05-20T21:55:06;20.70;92.00
28552;DHT22;15752;49.560;8.708;2023-05-20T21:57:36;20.70;93.00
28552;DHT22;15752;49.560;8.708;2023-05-20T22:00:11;20.40;91.90
28552;DHT22;15752;49.560;8.708;2023-05-20T22:02:41;20.70;92.80
28552;DHT22;15752;49.560;8.708;2023-05-20T22:05:10;20.70;91.90
28552;DHT22;15752;49.560;8.708;2023-05-20T22:07:39;20.60;92.60
28552;DHT22;15752;49.560;8.708;2023-05-20T22:10:09;20.60;93.00
28552;DHT22;15752;49.560;8.708;2023-05-20T22:12:39;20.60;93.30
28552;DHT22;15752;49.560;8.708;2023-05-20T22:15:10;20.60;92.40
28552;DHT22;15752;49.560;8.708;2023-05-20T22:17:39;20.60;92.90
28552;DHT22;15752;49.560;8.708;2023-05-20T22:20:09;20.50;92.40
28552;DHT22;15752;49.560;8.708;2023-05-20T22:22:39;20.50;93.50
28552;DHT22;15752;49.560;8.708;2023-05-20T22:25:08;20.50;92.90
28552;DHT22;15752;49.560;8.708;2023-05-20T22:27:37;20.50;93.30
28552;DHT22;15752;49.560;8.708;2023-05-20T22:30:11;20.50;93.50
28552;DHT22;15752;49.560;8.708;2023-05-20T22:32:40;20.50;93.70
28552;DHT22;15752;49.560;8.708;2023-05-20T22:35:08;20.50;92.90
28552;DHT22;15752;49.560;8.708;2023-05-20T22:37:39;20.40;92.80
28552;DHT22;15752;49.560;8.708;2023-05-20T22:40:09;20.40;92.40
28552;DHT22;15752;49.560;8.708;2023-05-20T22:42:38;20.40;93.50
28552;DHT22;15752;49.560;8.708;2023-05-20T22:45:07;20.40;92.70
28552;DHT22;15752;49.560;8.708;2023-05-20T22:47:38;20.30;93.50
28552;DHT22;15752;49.560;8.708;2023-05-20T22:50:07;20.40;93.10
28552;DHT22;15752;49.560;8.708;2023-05-20T22:52:36;20.40;93.70
28552;DHT22;15752;49.560;8.708;2023-05-20T22:55:05;20.30;93.10
28552;DHT22;15752;49.560;8.708;2023-05-20T22:57:37;20.30;93.40
28552;DHT22;15752;49.560;8.708;2023-05-20T23:00:07;20.30;92.80
28552;DHT22;15752;49.560;8.708;2023-05-20T23:02:38;20.30;94.20
28552;DHT22;15752;49.560;8.708;2023-05-20T23:05:07;20.30;93.20
28552;DHT22;15752;49.560;8.708;2023-05-20T23:07:37;20.20;93.10
28552;DHT22;15752;49.560;8.708;2023-05-20T23:10:06;20.20;93.60
28552;DHT22;15752;49.560;8.708;2023-05-20T23:12:35;20.20;94.10
28552;DHT22;15752;49.560;8.708;2023-05-20T23:15:05;20.20;93.80
28552;DHT22;15752;49.560;8.708;2023-05-20T23:17:34;20.20;94.20
28552;DHT22;15752;49.560;8.708;2023-05-20T23:20:06;20.20;93.10
28552;DHT22;15752;49.560;8.708;2023-05-20T23:22:37;20.10;94.20
28552;DHT22;15752;49.560;8.708;2023-05-20T23:25:06;20.10;93.10
28552;DHT22;15752;49.560;8.708;2023-05-20T23:27:35;20.10;94.20
28552;DHT22;15752;49.560;8.708;2023-05-20T23:30:05;20.10;93.60
28552;DHT22;15752;49.560;8.708;2023-05-20T23:32:34;20.10;94.60
28552;DHT22;15752;49.560;8.708;2023-05-20T23:35:05;20.00;93.30
28552;DHT22;15752;49.560;8.708;2023-05-20T23:37:37;20.00;94.20
28552;DHT22;15752;49.560;8.708;2023-05-20T23:40:07;20.00;93.20
28552;DHT22;15752;49.560;8.708;2023-05-20T23:42:37;20.20;94.40
28552;DHT22;15752;49.560;8.708;2023-05-20T23:45:07;20.00;94.20
28552;DHT22;15752;49.560;8.708;2023-05-20T23:47:36;20.00;94.40
28552;DHT22;15752;49.560;8.708;2023-05-20T23:50:06;20.00;93.10
28552;DHT22;15752;49.560;8.708;2023-05-20T23:52:35;20.00;94.10
28552;DHT22;15752;49.560;8.708;2023-05-20T23:55:07;20.00;93.70
28552;DHT22;15752;49.560;8.708;2023-05-20T23:57:36;20.00;94.60
